Terminal Aerodrome Forecast
Issued by NWS

Home | Current Version | Previous Version | Text Only | Print | Product List | Glossary On
Versions: 1 2 3 4 5 6 7 8 9 10 11 12 13 14 15 16 17 18
901
FTUS46 KSEW 252322
TAFHQM
TAF
KHQM 252322Z 2600/2624 25010KT P6SM SKC
     FM260600 25006KT 5SM BR BKN007
     FM260800 25006KT 4SM BR OVC005
     FM261800 24010KT 6SM BR OVC010
     FM262000 24013KT P6SM BKN015
     FM262300 24013KT P6SM SCT020=

USA.gov is the U.S. government's official web portal to all federal, state and local government web resources and services.